ADDS TAF Board INFO
 
 

IDs: Format: Expanded Condensed

KMEM - Memphis Intl, TN, US

Issued at 1130 UTC 01 Aug 2014
Time1254Z01/14Z01/15Z01/16Z01/17Z01/18Z01/19Z01/20Z01/21Z01/22Z01/23Z02/00Z02/01Z02/02Z
TypeOBSPRVLPRVLPRVLPRVLPRVLPRVLPRVLPRVLPRVLPRVLPRVLPRVLPRVL
Vis10>6>6>6>6>6>6>6>6>6>6>6>6>6
Cig70100100100120120120120120120120120150150
CoverOVCOVCOVCOVCBKNBKNBKNBKNBKNBKNBKNBKNBKNBKN
FltCat--VFRVFRVFRVFRVFRVFRVFRVFRVFRVFRVFRVFRVFR
Wx--VCSHVCSHVCSHVCSHVCSHVCSHVCSHVCSHVCSHVCSHVCSH----
WDir4040404070707070707070704040
WSpd65556666666644
WGst----------------------------
R09/27
XWnd54442222222233
HWnd43336666666622
R18/36
XWnd43336666666633
HWnd-5-4-4-4-2-2-2-2-2-2-2-2-3-3
Raw TAF
KMEM 011130Z 0112/0212 04005KT P6SM VCSH SCT060 OVC100
  FM011700 07006KT P6SM VCSH SCT060 BKN120
  FM020100 04004KT P6SM SCT100 BKN150


Raw METAR
KMEM 011254Z 04006KT 10SM OVC070 22/19 A3008 RMK AO2 SLP182 T02220189 $

TAF Board Legend

Hazard Green Yellow Red Magenta
Visibility (sm) >5 >2.99 >0.99 <=0.99
Ceiling (100 ft) >30 >9.99 >4.99 <=4.99
Wind Speed (kt) <10 <20 <30 >=30
Wind Gust (kt) <10 <20 <30 >=30
Weather No Wx Reported Light precipitation Moderate precipitation Heavy precipitation
Flight Category VFR MVFR IFR LIFR

Page loaded:  13:51 UTC  |   06:51 AM Pacific  |   07:51 AM Mountain  |   08:51 AM Central  |   09:51 AM Eastern

 

ADVISORIES

FORECASTS

FORECASTS

OBSERVATIONS

USER TOOLS

ABOUT US